Terminal Aerodrome Forecast
Issued by NWS

Home | Current Version | Previous Version | Text Only | Print | Product List | Glossary On
Versions: 1 2 3 4 5 6 7 8 9 10 11 12 13 14 15 16 17
000
FTUS41 KBTV 201100
TAFRUT
TAF
KRUT 201120Z 2012/2112 31005KT P6SM SCT050
     FM201500 24005KT P6SM SCT040 BKN120
     FM202200 14005KT P6SM SCT050 BKN100
     FM210800 14005KT P6SM -SHRA BKN045
      AMD LTD TO CLD VIS AND WIND=

USA.gov is the U.S. government's official web portal to all federal, state and local government web resources and services.